aviador You're here:

KUZA Decoded Metar

ROCK HILL in SC, USA
Report Time2017-08-18 09:54:00
UTC Time2017-08-18 10:49:24
Flight Rules vfr VFR
Wind220° at 05 kt
W.Decomp.*RWY 20: 4.5 kt HW 2.1 kt RCW
W.Rank220° ranks 2
Current wind is below 220° avg. (6.2)
Visibility9999 m
Phenomena:N/A
Clouds:N/A
CeilingNone
Temp23°C (ISA +9)
Dew Point23°C (100% RH)
QNH1014 hPa
Density Alt2,083 ft
Elevation663 ft
Report Wrong Elevation
Raw Report
KUZA 180954Z AUTO 22005KT 8SM CLR 23/23 A2995 RMK AO2 SLP126
T02330233=

Extra information for KUZA:More info

Metar Taf Metar & Taf Last 4 Metars F.Rules Stats Wind Profile Meteogram Temp Stats Airport Information Weather charts Add Link Nearby VenuesMetar ALERT Operation Metar Decoded Social comments

AIRNAV info for KUZA